createdAt,value
2023-01-17T00:02:49.206Z,98309.19
2023-01-17T00:06:11.239Z,98316.19
2023-01-17T00:09:33.510Z,98306.91
2023-01-17T00:12:37.031Z,98316.19
2023-01-17T00:15:40.185Z,98315.44
2023-01-17T00:19:03.129Z,98307.66
2023-01-17T00:22:28.954Z,98304.94
2023-01-17T00:25:53.949Z,98308.44
2023-01-17T00:28:56.499Z,98304.97
2023-01-17T00:31:59.277Z,98306.94
2023-01-17T00:35:01.750Z,98305.75
2023-01-17T00:38:11.126Z,98301.87
2023-01-17T00:41:14.758Z,98310.03
2023-01-17T00:44:36.812Z,98314.28
2023-01-17T00:47:58.037Z,98308.91
2023-01-17T00:51:22.157Z,98318.59
2023-01-17T00:54:43.204Z,98329.44
2023-01-17T00:58:04.281Z,98332.59
2023-01-17T01:01:25.857Z,98330.22
2023-01-17T01:04:47.444Z,98341.91
2023-01-17T01:08:08.657Z,98346.94
2023-01-17T01:11:36.635Z,98329.47
2023-01-17T01:14:57.621Z,98312.41
2023-01-17T01:18:26.682Z,98301.87
2023-01-17T01:21:47.844Z,98277.78
2023-01-17T01:25:09.437Z,98272.38
2023-01-17T01:28:32.694Z,98257.22
2023-01-17T01:31:54.494Z,98264.97
2023-01-17T01:34:57.060Z,98261.91
2023-01-17T01:38:02.435Z,98251.41
2023-01-17T01:41:05.708Z,98262.69
2023-01-17T01:44:47.329Z,98251.00
2023-01-17T01:47:53.993Z,98230.81
2023-01-17T01:50:56.973Z,98205.97
2023-01-17T01:54:06.288Z,98195.06
2023-01-17T01:57:12.768Z,98187.22
2023-01-17T02:00:44.973Z,98182.16
2023-01-17T02:03:49.385Z,98190.31
2023-01-17T02:07:14.677Z,98190.31
2023-01-17T02:10:17.736Z,98187.94
2023-01-17T02:13:21.059Z,98175.50
2023-01-17T02:16:51.507Z,98161.03
2023-01-17T02:20:16.348Z,98143.50
2023-01-17T02:23:22.368Z,98117.16
2023-01-17T02:26:46.222Z,98108.56
2023-01-17T02:30:26.744Z,98140.06
2023-01-17T02:33:39.198Z,98170.78
2023-01-17T02:36:49.889Z,98266.41
2023-01-17T02:40:02.439Z,98353.50
2023-01-17T02:43:11.945Z,98343.44
2023-01-17T02:46:14.566Z,98340.31
2023-01-17T02:49:22.123Z,98355.47
2023-01-17T02:52:42.892Z,98353.50
2023-01-17T02:55:45.781Z,98345.72
2023-01-17T02:58:57.404Z,98354.28
2023-01-17T03:02:06.106Z,98351.53
2023-01-17T03:05:21.606Z,98349.97
2023-01-17T03:08:25.973Z,98346.13
2023-01-17T03:11:28.662Z,98336.41
2023-01-17T03:14:31.931Z,98299.97
2023-01-17T03:17:34.566Z,98295.31
2023-01-17T03:20:37.975Z,98284.06
2023-01-17T03:23:40.597Z,98289.13
2023-01-17T03:26:47.941Z,98291.00
2023-01-17T03:29:50.588Z,98294.50
2023-01-17T03:32:53.476Z,98279.37
2023-01-17T03:35:58.259Z,98282.06
2023-01-17T03:39:03.020Z,98272.75
2023-01-17T03:42:05.686Z,98260.72
2023-01-17T03:45:09.189Z,98263.44
2023-01-17T03:48:12.040Z,98266.53
2023-01-17T03:51:15.629Z,98270.00
2023-01-17T03:54:18.238Z,98271.53
2023-01-17T03:57:21.100Z,98268.03
2023-01-17T04:00:23.891Z,98250.19
2023-01-17T04:03:27.051Z,98247.87
2023-01-17T04:06:29.865Z,98246.72
2023-01-17T04:09:34.569Z,98247.06
2023-01-17T04:12:37.180Z,98247.41
2023-01-17T04:15:40.699Z,98267.09
2023-01-17T04:18:44.750Z,98274.03
2023-01-17T04:21:47.673Z,98276.66
2023-01-17T04:24:50.333Z,98287.00
2023-01-17T04:27:54.314Z,98270.28
2023-01-17T04:31:00.692Z,98258.38
2023-01-17T04:34:03.681Z,98278.03
2023-01-17T04:37:06.516Z,98266.34
2023-01-17T04:40:11.049Z,98283.00
2023-01-17T04:43:13.644Z,98294.63
2023-01-17T04:46:16.533Z,98304.38
2023-01-17T04:49:20.110Z,98305.47
2023-01-17T04:52:23.064Z,98308.09
2023-01-17T04:55:26.896Z,98300.06
2023-01-17T04:58:31.288Z,98297.72
2023-01-17T05:01:34.075Z,98294.56
2023-01-17T05:04:37.005Z,98309.94
2023-01-17T05:07:39.618Z,98311.16
2023-01-17T05:10:42.542Z,98316.69
2023-01-17T05:13:47.491Z,98317.34
2023-01-17T05:16:55.831Z,98318.44
2023-01-17T05:19:58.535Z,98315.63
2023-01-17T05:23:02.025Z,98309.03
2023-01-17T05:26:04.699Z,98313.28
2023-01-17T05:29:07.659Z,98322.09
2023-01-17T05:32:10.320Z,98335.56
2023-01-17T05:35:13.276Z,98337.78
2023-01-17T05:38:16.121Z,98348.94
2023-01-17T05:41:19.088Z,98359.44
2023-01-17T05:44:21.664Z,98370.63
2023-01-17T05:47:24.578Z,98364.56
2023-01-17T05:50:33.324Z,98351.78
2023-01-17T05:53:36.278Z,98352.56
2023-01-17T05:56:39.071Z,98360.34
2023-01-17T05:59:42.785Z,98362.69
2023-01-17T06:02:46.267Z,98364.56
2023-01-17T06:05:50.195Z,98363.06
2023-01-17T06:08:53.073Z,98375.06
2023-01-17T06:11:55.952Z,98384.66
2023-01-17T06:14:58.596Z,98390.44
2023-01-17T06:18:12.569Z,98392.53
2023-01-17T06:21:15.331Z,98411.62
2023-01-17T06:24:18.237Z,98406.97
2023-01-17T06:27:21.120Z,98418.19
2023-01-17T06:30:24.018Z,98416.06
2023-01-17T06:33:26.908Z,98414.69
2023-01-17T06:36:30.509Z,98416.31
2023-01-17T06:39:33.629Z,98423.37
2023-01-17T06:42:36.553Z,98429.56
2023-01-17T06:45:39.171Z,98440.81
2023-01-17T06:48:43.706Z,98441.34
2023-01-17T06:51:46.687Z,98452.38
2023-01-17T06:54:49.896Z,98454.00
2023-01-17T06:57:52.599Z,98457.59
2023-01-17T13:17:00.681Z,98341.38
2023-01-17T13:20:19.335Z,98343.59
2023-01-17T13:23:50.315Z,98336.94
2023-01-17T13:26:56.126Z,98347.50
2023-01-17T13:30:35.891Z,98343.25
2023-01-17T13:33:44.909Z,98345.50
2023-01-17T13:37:21.008Z,98326.41
2023-01-17T13:40:33.965Z,98317.59
2023-01-17T13:44:02.094Z,98310.63
2023-01-17T13:47:11.419Z,98307.53
2023-01-17T13:50:38.998Z,98305.94
2023-01-17T13:53:41.780Z,98306.78
2023-01-17T13:56:44.488Z,98302.31
2023-01-17T13:59:47.507Z,98289.34
2023-01-17T14:02:51.622Z,98283.91
2023-01-17T14:05:58.155Z,98277.16
2023-01-17T14:09:25.404Z,98274.47
2023-01-17T14:12:32.920Z,98269.50
2023-01-17T14:15:49.851Z,98248.47
2023-01-17T14:18:55.534Z,98241.34
2023-01-17T14:22:16.844Z,98245.75
2023-01-17T14:25:31.216Z,98229.34
2023-01-17T14:28:33.871Z,98235.31
2023-01-17T14:31:37.759Z,98230.75
2023-01-17T14:34:40.615Z,98226.94
2023-01-17T14:37:47.749Z,98227.41
2023-01-17T14:41:04.655Z,98223.25
2023-01-17T14:44:11.275Z,98217.84
2023-01-17T14:47:15.953Z,98216.72
2023-01-17T14:50:21.816Z,98207.88
2023-01-17T14:53:29.089Z,98195.47
2023-01-17T14:56:33.359Z,98185.94
2023-01-17T14:59:35.920Z,98182.69
2023-01-17T15:02:43.994Z,98178.31
2023-01-17T15:05:50.121Z,98176.69
2023-01-17T15:08:58.410Z,98171.22
2023-01-17T15:12:02.662Z,98160.31
2023-01-17T15:15:38.352Z,98163.47
2023-01-17T15:18:42.573Z,98146.34
2023-01-17T15:21:50.749Z,98148.00
2023-01-17T15:24:54.347Z,98148.19
2023-01-17T15:27:57.585Z,98143.38
2023-01-17T15:31:10.959Z,98123.00
2023-01-17T15:34:38.647Z,98121.78
2023-01-17T15:37:41.818Z,98119.78
2023-01-17T15:40:45.780Z,98106.34
2023-01-17T15:43:48.368Z,98101.28
2023-01-17T15:46:51.334Z,98092.91
2023-01-17T15:49:54.477Z,98092.16
2023-01-17T15:53:06.711Z,98104.81
2023-01-17T15:56:24.543Z,98083.34
2023-01-17T15:59:42.980Z,98045.44
2023-01-17T16:02:58.893Z,98023.62
2023-01-17T16:06:03.125Z,97991.34
2023-01-17T16:09:22.470Z,97991.97
2023-01-17T16:12:25.409Z,97993.03
2023-01-17T16:15:29.282Z,97988.53
2023-01-17T16:18:32.246Z,97971.44
2023-01-17T16:21:35.407Z,97947.31
2023-01-17T16:24:38.277Z,97945.88
2023-01-17T16:27:43.132Z,97921.22
2023-01-17T16:30:48.990Z,97924.38
2023-01-17T16:33:52.545Z,97909.75
2023-01-17T16:36:55.477Z,97888.44
2023-01-17T16:39:58.336Z,97886.47
2023-01-17T16:43:01.354Z,97881.16
2023-01-17T16:46:04.022Z,97883.38
2023-01-17T16:49:19.452Z,97883.28
2023-01-17T16:52:22.512Z,97884.09
2023-01-17T16:55:26.628Z,97880.19
2023-01-17T16:58:29.228Z,97888.53
2023-01-17T17:01:32.314Z,97867.06
2023-01-17T17:04:35.032Z,97870.09
2023-01-17T17:07:45.496Z,97867.72
2023-01-17T17:10:48.335Z,97853.16
2023-01-17T17:13:52.183Z,97847.00
2023-01-17T17:16:56.269Z,97844.56
2023-01-17T17:19:59.206Z,97832.59
2023-01-17T17:23:01.778Z,97816.72
2023-01-17T17:26:05.721Z,97818.16
2023-01-17T17:29:12.082Z,97829.44
2023-01-17T17:32:17.277Z,97815.47
2023-01-17T17:35:19.892Z,97814.09
2023-01-17T17:38:22.844Z,97803.78
2023-01-17T17:41:28.330Z,97800.78
2023-01-17T17:44:31.294Z,97787.56
2023-01-17T17:47:34.057Z,97771.78
2023-01-17T17:50:36.978Z,97763.34
2023-01-17T17:53:39.558Z,97750.94
2023-01-17T17:56:46.557Z,97736.72
2023-01-17T17:59:49.201Z,97720.50
2023-01-17T18:02:52.111Z,97702.88
2023-01-17T18:06:01.835Z,97696.03
2023-01-17T18:09:09.099Z,97682.09
2023-01-17T18:12:12.047Z,97679.72
2023-01-17T18:15:15.379Z,97688.62
2023-01-17T18:18:18.416Z,97676.09
2023-01-17T18:21:25.327Z,97664.91
2023-01-17T18:24:28.448Z,97667.63
2023-01-17T18:27:31.321Z,97673.03
2023-01-17T18:30:38.571Z,97669.53
2023-01-17T18:33:41.521Z,97669.94
2023-01-17T18:36:44.746Z,97664.66
2023-01-17T18:39:47.612Z,97647.25
2023-01-17T18:42:51.052Z,97666.81
2023-01-17T18:45:54.009Z,97661.94
2023-01-17T18:48:57.904Z,97658.34
2023-01-17T18:52:00.988Z,97652.16
2023-01-17T18:55:04.666Z,97655.50
2023-01-17T18:58:09.235Z,97641.78
2023-01-17T19:01:22.294Z,97646.13
2023-01-17T19:04:25.660Z,97630.78
2023-01-17T19:07:31.011Z,97627.34
2023-01-17T19:10:33.796Z,97645.34
2023-01-17T19:13:38.763Z,97625.81
2023-01-17T19:16:42.315Z,97637.25
2023-01-17T19:19:46.635Z,97627.78
2023-01-17T19:22:52.719Z,97630.59
2023-01-17T19:25:56.606Z,97629.72
2023-01-17T19:29:00.355Z,97613.75
2023-01-17T19:32:03.409Z,97610.09
2023-01-17T19:35:08.623Z,97613.00
2023-01-17T19:38:11.683Z,97613.59
2023-01-17T19:41:18.429Z,97604.31
2023-01-17T19:44:21.486Z,97602.75
2023-01-17T19:47:24.252Z,97602.41
2023-01-17T19:50:29.670Z,97596.78
2023-01-17T19:53:33.004Z,97583.22
2023-01-17T19:56:36.121Z,97592.44
2023-01-17T19:59:38.736Z,97574.94
2023-01-17T20:02:41.873Z,97568.44
2023-01-17T20:05:46.209Z,97580.06
2023-01-17T20:08:49.088Z,97576.22
2023-01-17T20:11:52.224Z,97577.66
2023-01-17T20:14:55.012Z,97581.16
2023-01-17T20:17:58.314Z,97578.69
2023-01-17T20:21:23.361Z,97578.84
2023-01-17T20:24:26.672Z,97578.88
2023-01-17T20:27:29.326Z,97577.59
2023-01-17T20:30:34.638Z,97580.59
2023-01-17T20:33:37.581Z,97568.72
2023-01-17T20:36:42.199Z,97580.75
2023-01-17T20:39:46.056Z,97566.16
2023-01-17T20:42:48.992Z,97574.69
2023-01-17T20:46:03.452Z,97573.69
2023-01-17T20:49:13.404Z,97584.69
2023-01-17T20:52:16.660Z,97588.78
2023-01-17T20:55:19.605Z,97585.78
2023-01-17T20:58:27.604Z,97582.47
2023-01-17T21:01:30.781Z,97596.66
2023-01-17T21:04:33.422Z,97609.25
2023-01-17T21:07:37.290Z,97595.94
2023-01-17T21:10:39.823Z,97616.22
2023-01-17T21:13:43.103Z,97602.63
2023-01-17T21:16:45.808Z,97581.25
2023-01-17T21:19:48.693Z,97562.16
2023-01-17T21:22:52.285Z,97516.09
2023-01-17T21:25:59.137Z,97523.09
2023-01-17T21:29:02.089Z,97556.63
2023-01-17T21:32:05.599Z,97562.34
2023-01-17T21:35:08.596Z,97567.03
2023-01-17T21:38:12.800Z,97555.94
2023-01-17T21:41:16.050Z,97562.69
2023-01-17T21:44:21.712Z,97565.56
2023-01-17T21:47:24.412Z,97568.47
2023-01-17T21:50:33.305Z,97579.72
2023-01-17T21:53:38.375Z,97585.37
2023-01-17T21:57:00.322Z,97593.22
2023-01-17T22:00:06.470Z,97598.53
2023-01-17T22:03:13.996Z,97593.56
2023-01-17T22:06:18.055Z,97606.78
2023-01-17T22:09:23.996Z,97627.78
2023-01-17T22:12:27.139Z,97617.63
2023-01-17T22:15:29.794Z,97644.63
2023-01-17T22:18:39.048Z,97631.56
2023-01-17T22:21:43.908Z,97651.00
2023-01-17T22:24:46.960Z,97654.19
2023-01-17T22:27:49.904Z,97655.44
2023-01-17T22:30:52.967Z,97660.22
2023-01-17T22:33:58.233Z,97674.28
2023-01-17T22:37:02.474Z,97676.44
2023-01-17T22:40:05.976Z,97684.87
2023-01-17T22:43:08.900Z,97680.12
2023-01-17T22:46:14.682Z,97678.06
2023-01-17T22:49:18.651Z,97705.13
2023-01-17T22:52:21.249Z,97699.19
2023-01-17T22:55:24.267Z,97706.72
2023-01-17T22:58:28.772Z,97709.72
2023-01-17T23:01:32.961Z,97716.84
2023-01-17T23:04:36.036Z,97707.34
2023-01-17T23:07:44.917Z,97699.16
2023-01-17T23:11:06.152Z,97700.09
2023-01-17T23:14:52.691Z,97725.06
2023-01-17T23:18:14.072Z,97732.31
2023-01-17T23:21:17.439Z,97727.03
2023-01-17T23:24:20.171Z,97727.53
2023-01-17T23:27:47.651Z,97718.66
2023-01-17T23:30:50.310Z,97743.41
2023-01-17T23:33:53.177Z,97758.38
2023-01-17T23:36:55.766Z,97749.28
2023-01-17T23:39:58.662Z,97760.97
2023-01-17T23:43:19.666Z,97772.03
2023-01-17T23:46:25.340Z,97774.47
2023-01-17T23:49:29.656Z,97785.34
2023-01-17T23:52:32.537Z,97775.87
2023-01-17T23:55:39.801Z,97761.09
2023-01-17T23:58:42.750Z,97767.13
